Tetouan, Morocco
Current Conditions -  °F | °C
As of 1:00 AM on Monday 24 Nov 2014 (Local Time) from GMTN Reporting Station
NA  
Wind Chill: 63°   Ceiling: NA
Heat Index: 63°   Visibility: 0.56mi
Dew Point: 59°   Wind: 5mph
Humidity: 88%   Direction: 120°ESE
Pressure: 29.83"   Gusts: NA
Location:  35.58°N, 5.37°W
Report Text: GMTN 240000Z AUTO 12004KT 090V190 0900NDV R24/1200V1400N ///17/15 Q1010
Loading
Personal Weather Stations






























Interactive Weather Map New forecast layout! Learn more

10-Day Weather Forecast

Advertisements
Track Severe Weather on mobile